Hovedside
METAR-TAF:

METAR-TAF

Lufthavner :

Luleå lufthavn

Luleå, Sverige

breddegrad: 65-33N, lengdegrad: 022-08E, høyde over havet: 17 m

Gjeldene værobservasjon

Denne rapporten ble laget for 26 minutter siden, klokken 06:20 UTC
Vind 3 kt fra Øst-sørøst
Temperatur -2°C
Luftfuktighet 100%
Trykk 1019 hPa
Sikt 10 km eller mer
(lett) iskorn

METAR: ESPA 170620Z AUTO 11003KT 9999 -PL FEW010/// SCT015/// BKN019/// OVC024/// M02/M02 Q1019

Tid: 07:46 (06:46 UTC)

Varsel

Denne rapporten ble laget for 16 minutter siden, klokken 06:30 UTC
Varsel gyldig fra 17. klokken 07 UTC til 17. klokken 15 UTC
Vind 4 kt fra Øst
Sikt: 9000 m
Brutte skyer i en høyde av 1600 ft
lett snø
Blir
fra 17. klokken 07 UTC til 17. klokken 09 UTC
Vind 10 kt fra Nordøst
Sikt: 2000 m
i en høyde av 400 ft
snø
Midlertidig
fra 17. klokken 09 UTC til 17. klokken 15 UTC
Sikt: 4000 m
Brutte skyer i en høyde av 1000 ft

TAF: ESPA 170630Z 1707/1715 10004KT 9000 -SN BKN016 BECMG 1707/1709 04010KT 2000 SN VV004 TEMPO 1709/1715 4000 BKN010

Værobservasjoner og værvarsel for over 4000 flyplasser (METAR- og TAF-rapporter).

Tilgjengelige stasjoner er representert av de røde og gule prikkene på kartet.

Hold musepekeren over prikken for å se navnet på stasjonen.

Klikk så for å se værobservasjoner og -varsler.

For å forandre kartet kan du klikke på den grønne knappen med svart kryss for å zoome inn, på den grønne knappen med strek for å zoome ut, eller på de grønne pilene for å se tilstøtende kart.


METAR-TAF: